sensor_id;sensor_type;location;lat;lon;timestamp;pressure;altitude;pressure_sealevel;temperature;humidity
3844;BME280;1937;51.444;6.484;2023-07-31T00:02:18;70793.16;;;16.93;100.00
3844;BME280;1937;51.444;6.484;2023-07-31T00:04:45;70777.19;;;16.97;100.00
3844;BME280;1937;51.444;6.484;2023-07-31T00:07:11;70741.66;;;16.87;100.00
3844;BME280;1937;51.444;6.484;2023-07-31T00:09:38;70722.81;;;16.87;100.00
3844;BME280;1937;51.444;6.484;2023-07-31T00:12:05;70725.88;;;16.89;100.00
3844;BME280;1937;51.444;6.484;2023-07-31T00:14:33;70726.56;;;16.81;100.00
3844;BME280;1937;51.444;6.484;2023-07-31T00:17:00;70787.53;;;16.91;100.00
3844;BME280;1937;51.444;6.484;2023-07-31T00:19:26;70740.78;;;16.82;100.00
3844;BME280;1937;51.444;6.484;2023-07-31T00:21:53;70755.63;;;16.84;100.00
3844;BME280;1937;51.444;6.484;2023-07-31T00:24:19;70784.41;;;16.82;100.00
3844;BME280;1937;51.444;6.484;2023-07-31T00:26:46;70784.91;;;16.91;100.00
3844;BME280;1937;51.444;6.484;2023-07-31T00:29:13;70802.97;;;16.93;100.00
3844;BME280;1937;51.444;6.484;2023-07-31T00:31:40;70737.97;;;16.99;100.00
3844;BME280;1937;51.444;6.484;2023-07-31T00:34:07;70740.22;;;17.03;100.00
3844;BME280;1937;51.444;6.484;2023-07-31T00:36:34;70677.66;;;16.97;100.00
3844;BME280;1937;51.444;6.484;2023-07-31T00:39:00;70623.56;;;16.91;100.00
3844;BME280;1937;51.444;6.484;2023-07-31T00:41:27;70642.56;;;16.89;100.00
3844;BME280;1937;51.444;6.484;2023-07-31T00:43:53;70695.13;;;16.98;100.00
3844;BME280;1937;51.444;6.484;2023-07-31T00:46:20;70632.22;;;16.96;100.00
3844;BME280;1937;51.444;6.484;2023-07-31T00:48:48;70672.47;;;16.97;100.00
3844;BME280;1937;51.444;6.484;2023-07-31T00:51:15;70605.16;;;16.93;100.00
3844;BME280;1937;51.444;6.484;2023-07-31T00:53:42;70624.59;;;16.94;100.00
3844;BME280;1937;51.444;6.484;2023-07-31T00:56:09;70604.78;;;16.97;100.00
3844;BME280;1937;51.444;6.484;2023-07-31T00:58:37;70561.47;;;16.87;100.00
3844;BME280;1937;51.444;6.484;2023-07-31T01:01:03;70623.22;;;16.95;100.00
3844;BME280;1937;51.444;6.484;2023-07-31T01:03:30;70597.84;;;17.02;100.00
3844;BME280;1937;51.444;6.484;2023-07-31T01:06:06;70546.47;;;16.87;100.00
3844;BME280;1937;51.444;6.484;2023-07-31T01:08:42;70554.16;;;16.96;100.00
3844;BME280;1937;51.444;6.484;2023-07-31T01:11:15;70541.38;;;17.00;100.00
3844;BME280;1937;51.444;6.484;2023-07-31T01:13:42;70479.28;;;16.96;100.00
3844;BME280;1937;51.444;6.484;2023-07-31T01:16:10;70467.84;;;16.93;100.00
3844;BME280;1937;51.444;6.484;2023-07-31T01:18:37;70419.16;;;16.92;100.00
3844;BME280;1937;51.444;6.484;2023-07-31T01:21:17;70413.69;;;16.81;100.00
3844;BME280;1937;51.444;6.484;2023-07-31T01:24:07;70463.06;;;16.96;100.00
3844;BME280;1937;51.444;6.484;2023-07-31T01:26:40;70414.78;;;16.90;100.00
3844;BME280;1937;51.444;6.484;2023-07-31T01:29:16;70382.16;;;16.98;100.00
3844;BME280;1937;51.444;6.484;2023-07-31T01:31:47;70305.09;;;16.94;100.00
3844;BME280;1937;51.444;6.484;2023-07-31T01:34:17;70301.66;;;16.89;100.00
3844;BME280;1937;51.444;6.484;2023-07-31T01:36:44;70339.53;;;16.95;100.00
3844;BME280;1937;51.444;6.484;2023-07-31T01:39:11;70280.44;;;16.87;100.00
3844;BME280;1937;51.444;6.484;2023-07-31T01:41:39;70284.03;;;16.83;100.00
3844;BME280;1937;51.444;6.484;2023-07-31T01:44:06;70240.56;;;16.82;100.00
3844;BME280;1937;51.444;6.484;2023-07-31T01:46:33;70168.94;;;16.83;100.00
3844;BME280;1937;51.444;6.484;2023-07-31T01:48:59;70099.28;;;16.83;100.00
3844;BME280;1937;51.444;6.484;2023-07-31T01:51:26;70150.75;;;17.02;100.00
3844;BME280;1937;51.444;6.484;2023-07-31T01:53:52;70109.50;;;17.05;100.00
3844;BME280;1937;51.444;6.484;2023-07-31T01:56:19;70026.63;;;17.01;100.00
3844;BME280;1937;51.444;6.484;2023-07-31T01:58:47;70021.19;;;17.09;100.00
3844;BME280;1937;51.444;6.484;2023-07-31T02:01:13;69983.00;;;17.01;100.00
3844;BME280;1937;51.444;6.484;2023-07-31T02:03:40;69954.13;;;17.03;100.00
3844;BME280;1937;51.444;6.484;2023-07-31T02:06:07;69936.16;;;16.95;100.00
3844;BME280;1937;51.444;6.484;2023-07-31T02:08:34;69901.91;;;16.99;100.00
3844;BME280;1937;51.444;6.484;2023-07-31T02:11:00;69906.06;;;17.09;100.00
3844;BME280;1937;51.444;6.484;2023-07-31T02:13:27;69849.25;;;16.98;100.00
3844;BME280;1937;51.444;6.484;2023-07-31T02:15:55;69838.81;;;17.05;100.00
3844;BME280;1937;51.444;6.484;2023-07-31T02:18:22;69825.00;;;17.06;100.00
3844;BME280;1937;51.444;6.484;2023-07-31T02:20:49;69775.75;;;17.04;100.00
3844;BME280;1937;51.444;6.484;2023-07-31T02:23:16;69847.38;;;17.23;100.00
3844;BME280;1937;51.444;6.484;2023-07-31T02:25:43;69783.75;;;17.09;99.94
3844;BME280;1937;51.444;6.484;2023-07-31T02:28:09;69755.84;;;17.20;98.72
3844;BME280;1937;51.444;6.484;2023-07-31T02:30:36;69701.47;;;17.12;98.79
3844;BME280;1937;51.444;6.484;2023-07-31T02:33:05;69736.47;;;17.19;98.41
3844;BME280;1937;51.444;6.484;2023-07-31T02:35:31;69736.88;;;17.15;98.96
3844;BME280;1937;51.444;6.484;2023-07-31T02:37:58;69680.69;;;17.05;98.94
3844;BME280;1937;51.444;6.484;2023-07-31T02:40:24;69700.78;;;17.25;97.68
3844;BME280;1937;51.444;6.484;2023-07-31T02:42:51;69652.50;;;17.26;97.28
3844;BME280;1937;51.444;6.484;2023-07-31T02:45:18;69646.91;;;17.23;97.34
3844;BME280;1937;51.444;6.484;2023-07-31T02:47:44;69668.34;;;17.24;97.89
3844;BME280;1937;51.444;6.484;2023-07-31T02:50:12;69689.75;;;17.24;98.22
3844;BME280;1937;51.444;6.484;2023-07-31T02:52:39;69588.50;;;17.15;97.71
3844;BME280;1937;51.444;6.484;2023-07-31T02:55:06;69636.56;;;17.16;98.14
3844;BME280;1937;51.444;6.484;2023-07-31T02:57:33;69609.72;;;17.18;98.80
3844;BME280;1937;51.444;6.484;2023-07-31T02:59:59;69659.72;;;17.25;98.61
3844;BME280;1937;51.444;6.484;2023-07-31T03:02:26;69645.72;;;17.22;99.05
3844;BME280;1937;51.444;6.484;2023-07-31T03:04:53;69680.56;;;17.25;98.84
3844;BME280;1937;51.444;6.484;2023-07-31T03:07:21;69679.72;;;17.27;98.09
3844;BME280;1937;51.444;6.484;2023-07-31T03:09:47;69658.38;;;17.19;99.18
3844;BME280;1937;51.444;6.484;2023-07-31T03:12:14;69695.75;;;17.29;98.92
3844;BME280;1937;51.444;6.484;2023-07-31T03:14:40;69679.69;;;17.33;98.96
3844;BME280;1937;51.444;6.484;2023-07-31T03:17:07;69675.22;;;17.38;97.84
3844;BME280;1937;51.444;6.484;2023-07-31T03:19:34;69674.25;;;17.35;98.08
3844;BME280;1937;51.444;6.484;2023-07-31T03:22:00;69649.53;;;17.23;99.18
3844;BME280;1937;51.444;6.484;2023-07-31T03:24:29;69672.47;;;17.34;98.23
3844;BME280;1937;51.444;6.484;2023-07-31T03:26:56;69687.66;;;17.38;98.78
3844;BME280;1937;51.444;6.484;2023-07-31T03:29:22;69687.41;;;17.46;98.42
3844;BME280;1937;51.444;6.484;2023-07-31T03:31:49;69712.47;;;17.43;98.18
3844;BME280;1937;51.444;6.484;2023-07-31T03:34:16;69731.00;;;17.59;97.60
3844;BME280;1937;51.444;6.484;2023-07-31T03:36:42;69706.41;;;17.51;98.51
3844;BME280;1937;51.444;6.484;2023-07-31T03:39:09;69669.94;;;17.51;97.66
3844;BME280;1937;51.444;6.484;2023-07-31T03:41:37;69713.84;;;17.49;97.59
3844;BME280;1937;51.444;6.484;2023-07-31T03:44:04;69662.94;;;17.50;97.05
3844;BME280;1937;51.444;6.484;2023-07-31T03:46:30;69679.69;;;17.57;96.75
3844;BME280;1937;51.444;6.484;2023-07-31T03:48:57;69644.66;;;17.56;96.89
3844;BME280;1937;51.444;6.484;2023-07-31T03:51:24;69657.78;;;17.68;96.21
3844;BME280;1937;51.444;6.484;2023-07-31T03:53:50;69698.22;;;17.73;96.73
3844;BME280;1937;51.444;6.484;2023-07-31T03:56:17;69719.25;;;17.78;96.16
3844;BME280;1937;51.444;6.484;2023-07-31T03:58:45;69683.03;;;17.69;96.68
3844;BME280;1937;51.444;6.484;2023-07-31T04:01:11;69607.88;;;17.72;95.95
3844;BME280;1937;51.444;6.484;2023-07-31T04:03:38;69670.34;;;17.78;96.20
3844;BME280;1937;51.444;6.484;2023-07-31T04:06:04;69702.38;;;17.83;96.61
3844;BME280;1937;51.444;6.484;2023-07-31T04:08:32;69722.19;;;17.87;96.26
3844;BME280;1937;51.444;6.484;2023-07-31T04:10:58;69696.47;;;17.72;96.75
3844;BME280;1937;51.444;6.484;2023-07-31T04:13:25;69688.19;;;17.76;97.12
3844;BME280;1937;51.444;6.484;2023-07-31T04:15:54;69691.41;;;17.76;97.42
3844;BME280;1937;51.444;6.484;2023-07-31T04:18:20;69774.41;;;17.98;95.96
3844;BME280;1937;51.444;6.484;2023-07-31T04:20:47;69703.19;;;17.82;96.87
3844;BME280;1937;51.444;6.484;2023-07-31T04:23:14;69718.56;;;17.90;96.40
3844;BME280;1937;51.444;6.484;2023-07-31T04:25:40;69728.00;;;17.87;96.67
3844;BME280;1937;51.444;6.484;2023-07-31T04:28:07;69717.41;;;17.83;97.38
3844;BME280;1937;51.444;6.484;2023-07-31T04:30:33;69688.97;;;17.81;97.19
3844;BME280;1937;51.444;6.484;2023-07-31T04:33:03;69699.97;;;17.81;97.20
3844;BME280;1937;51.444;6.484;2023-07-31T04:35:29;69687.59;;;17.75;97.65
3844;BME280;1937;51.444;6.484;2023-07-31T04:37:56;69725.00;;;17.85;97.99
3844;BME280;1937;51.444;6.484;2023-07-31T04:40:23;69796.88;;;18.02;96.56
3844;BME280;1937;51.444;6.484;2023-07-31T04:42:50;69748.16;;;18.00;96.21
3844;BME280;1937;51.444;6.484;2023-07-31T04:45:16;69703.44;;;17.97;96.22
3844;BME280;1937;51.444;6.484;2023-07-31T04:47:43;69715.13;;;17.92;97.08
3844;BME280;1937;51.444;6.484;2023-07-31T04:50:11;69716.81;;;17.82;97.72
3844;BME280;1937;51.444;6.484;2023-07-31T04:52:38;69745.97;;;17.96;97.00
3844;BME280;1937;51.444;6.484;2023-07-31T04:55:05;69774.97;;;18.05;96.99
3844;BME280;1937;51.444;6.484;2023-07-31T04:57:31;69700.31;;;17.90;97.83
3844;BME280;1937;51.444;6.484;2023-07-31T04:59:58;69783.44;;;17.99;97.89
3844;BME280;1937;51.444;6.484;2023-07-31T05:02:25;69808.41;;;18.09;97.42
3844;BME280;1937;51.444;6.484;2023-07-31T05:04:51;69795.56;;;18.14;97.34
3844;BME280;1937;51.444;6.484;2023-07-31T05:07:19;69745.84;;;17.85;98.78
3844;BME280;1937;51.444;6.484;2023-07-31T05:09:46;69743.16;;;17.67;100.00
3844;BME280;1937;51.444;6.484;2023-07-31T05:12:12;69731.53;;;17.73;99.51
3844;BME280;1937;51.444;6.484;2023-07-31T05:14:39;69778.75;;;17.82;99.52
3844;BME280;1937;51.444;6.484;2023-07-31T05:17:06;69813.00;;;17.84;99.55
3844;BME280;1937;51.444;6.484;2023-07-31T05:19:32;69778.88;;;17.93;97.57
3844;BME280;1937;51.444;6.484;2023-07-31T05:21:59;69774.47;;;17.91;98.02
3844;BME280;1937;51.444;6.484;2023-07-31T05:24:27;69739.56;;;17.95;97.76
3844;BME280;1937;51.444;6.484;2023-07-31T05:26:53;69808.31;;;17.98;98.58
3844;BME280;1937;51.444;6.484;2023-07-31T05:29:20;69806.09;;;18.00;98.46
3844;BME280;1937;51.444;6.484;2023-07-31T05:31:48;69805.44;;;18.07;98.78
3844;BME280;1937;51.444;6.484;2023-07-31T05:34:14;69801.84;;;18.04;98.22
3844;BME280;1937;51.444;6.484;2023-07-31T05:36:41;69833.25;;;18.15;98.39
3844;BME280;1937;51.444;6.484;2023-07-31T05:39:07;69826.66;;;18.09;98.45
3844;BME280;1937;51.444;6.484;2023-07-31T05:41:36;69845.88;;;18.19;98.10
3844;BME280;1937;51.444;6.484;2023-07-31T05:44:03;69854.84;;;18.26;97.04
3844;BME280;1937;51.444;6.484;2023-07-31T05:46:30;69780.91;;;18.17;97.79
3844;BME280;1937;51.444;6.484;2023-07-31T05:48:57;69863.34;;;18.14;98.60
3844;BME280;1937;51.444;6.484;2023-07-31T05:51:26;69905.75;;;18.32;97.00
3844;BME280;1937;51.444;6.484;2023-07-31T05:53:52;69823.31;;;18.28;96.74
3844;BME280;1937;51.444;6.484;2023-07-31T05:56:19;69821.00;;;18.20;97.64
3844;BME280;1937;51.444;6.484;2023-07-31T05:58:47;69814.41;;;18.14;98.30
3844;BME280;1937;51.444;6.484;2023-07-31T06:01:15;69811.31;;;18.00;98.71
3844;BME280;1937;51.444;6.484;2023-07-31T06:03:42;69815.19;;;17.88;100.00
3844;BME280;1937;51.444;6.484;2023-07-31T06:06:09;69835.88;;;17.84;100.00
3844;BME280;1937;51.444;6.484;2023-07-31T06:08:36;69849.91;;;17.80;100.00
3844;BME280;1937;51.444;6.484;2023-07-31T06:11:02;69857.94;;;17.78;100.00
3844;BME280;1937;51.444;6.484;2023-07-31T06:13:29;69872.25;;;17.66;100.00
3844;BME280;1937;51.444;6.484;2023-07-31T06:15:57;69934.97;;;17.64;100.00
3844;BME280;1937;51.444;6.484;2023-07-31T06:18:24;69929.81;;;17.44;100.00
3844;BME280;1937;51.444;6.484;2023-07-31T06:20:51;70010.34;;;17.46;100.00
3844;BME280;1937;51.444;6.484;2023-07-31T06:23:18;70063.03;;;17.40;100.00
3844;BME280;1937;51.444;6.484;2023-07-31T06:25:45;70104.91;;;17.45;100.00
3844;BME280;1937;51.444;6.484;2023-07-31T06:28:12;70123.94;;;17.43;100.00
3844;BME280;1937;51.444;6.484;2023-07-31T06:30:39;70168.41;;;17.41;100.00
3844;BME280;1937;51.444;6.484;2023-07-31T06:33:07;70146.56;;;17.45;100.00
3844;BME280;1937;51.444;6.484;2023-07-31T06:35:34;70166.00;;;17.39;100.00
3844;BME280;1937;51.444;6.484;2023-07-31T06:38:00;70156.78;;;17.40;100.00
3844;BME280;1937;51.444;6.484;2023-07-31T06:40:27;70219.50;;;17.51;100.00
3844;BME280;1937;51.444;6.484;2023-07-31T06:42:54;70223.31;;;17.52;100.00
3844;BME280;1937;51.444;6.484;2023-07-31T06:45:21;70197.88;;;17.46;100.00
3844;BME280;1937;51.444;6.484;2023-07-31T06:47:47;70204.47;;;17.39;100.00
3844;BME280;1937;51.444;6.484;2023-07-31T06:50:16;70246.53;;;17.41;100.00
3844;BME280;1937;51.444;6.484;2023-07-31T06:52:42;70248.72;;;17.39;100.00
3844;BME280;1937;51.444;6.484;2023-07-31T06:55:17;70211.66;;;17.25;100.00
3844;BME280;1937;51.444;6.484;2023-07-31T06:57:45;70262.50;;;17.17;100.00
3844;BME280;1937;51.444;6.484;2023-07-31T07:00:12;70301.34;;;17.13;100.00
3844;BME280;1937;51.444;6.484;2023-07-31T07:02:39;70346.06;;;17.29;100.00
3844;BME280;1937;51.444;6.484;2023-07-31T07:05:06;70349.47;;;17.27;100.00
3844;BME280;1937;51.444;6.484;2023-07-31T07:07:34;70346.81;;;17.14;100.00
3844;BME280;1937;51.444;6.484;2023-07-31T07:10:01;70300.94;;;17.10;100.00
3844;BME280;1937;51.444;6.484;2023-07-31T07:12:30;70465.63;;;17.24;100.00
3844;BME280;1937;51.444;6.484;2023-07-31T07:14:57;70453.56;;;17.20;100.00
3844;BME280;1937;51.444;6.484;2023-07-31T07:17:23;70413.47;;;17.11;100.00
3844;BME280;1937;51.444;6.484;2023-07-31T07:19:50;70499.47;;;17.24;100.00
3844;BME280;1937;51.444;6.484;2023-07-31T07:22:17;70467.97;;;17.13;100.00
3844;BME280;1937;51.444;6.484;2023-07-31T07:24:45;70540.16;;;17.28;100.00
3844;BME280;1937;51.444;6.484;2023-07-31T07:27:12;70530.28;;;17.22;100.00
3844;BME280;1937;51.444;6.484;2023-07-31T07:29:38;70478.59;;;17.17;100.00
3844;BME280;1937;51.444;6.484;2023-07-31T07:32:05;70460.72;;;17.07;100.00
3844;BME280;1937;51.444;6.484;2023-07-31T07:34:32;70565.91;;;17.16;100.00
3844;BME280;1937;51.444;6.484;2023-07-31T07:36:58;70433.78;;;16.89;100.00
3844;BME280;1937;51.444;6.484;2023-07-31T07:39:25;70285.53;;;16.60;100.00
3844;BME280;1937;51.444;6.484;2023-07-31T07:41:53;70420.63;;;16.69;100.00
3844;BME280;1937;51.444;6.484;2023-07-31T07:44:19;70384.00;;;16.64;100.00
3844;BME280;1937;51.444;6.484;2023-07-31T07:46:46;70416.03;;;16.69;100.00
3844;BME280;1937;51.444;6.484;2023-07-31T07:49:13;70481.72;;;16.76;100.00
3844;BME280;1937;51.444;6.484;2023-07-31T07:51:39;70523.38;;;16.76;100.00
3844;BME280;1937;51.444;6.484;2023-07-31T07:54:06;70485.88;;;16.67;100.00
3844;BME280;1937;51.444;6.484;2023-07-31T07:56:33;70498.06;;;16.68;100.00
3844;BME280;1937;51.444;6.484;2023-07-31T07:59:02;70574.97;;;16.74;100.00
3844;BME280;1937;51.444;6.484;2023-07-31T08:01:29;70545.38;;;16.77;100.00
3844;BME280;1937;51.444;6.484;2023-07-31T08:03:56;70563.78;;;16.75;100.00
3844;BME280;1937;51.444;6.484;2023-07-31T08:06:22;70596.69;;;16.86;100.00
3844;BME280;1937;51.444;6.484;2023-07-31T08:08:49;70641.84;;;16.97;100.00
3844;BME280;1937;51.444;6.484;2023-07-31T08:11:16;70695.34;;;17.03;100.00
3844;BME280;1937;51.444;6.484;2023-07-31T08:13:42;70665.53;;;17.02;100.00
3844;BME280;1937;51.444;6.484;2023-07-31T08:16:10;70731.69;;;17.11;100.00
3844;BME280;1937;51.444;6.484;2023-07-31T08:18:37;70745.19;;;17.20;100.00
3844;BME280;1937;51.444;6.484;2023-07-31T08:21:05;70692.50;;;17.20;100.00
3844;BME280;1937;51.444;6.484;2023-07-31T08:23:32;70737.03;;;17.25;100.00
3844;BME280;1937;51.444;6.484;2023-07-31T08:25:58;70683.22;;;17.30;100.00
3844;BME280;1937;51.444;6.484;2023-07-31T08:28:25;70664.13;;;17.25;100.00
3844;BME280;1937;51.444;6.484;2023-07-31T08:30:52;70659.28;;;17.20;100.00
3844;BME280;1937;51.444;6.484;2023-07-31T08:33:19;70642.81;;;17.15;100.00
3844;BME280;1937;51.444;6.484;2023-07-31T08:35:46;70584.88;;;17.08;100.00
3844;BME280;1937;51.444;6.484;2023-07-31T08:38:13;70603.69;;;17.09;100.00
3844;BME280;1937;51.444;6.484;2023-07-31T08:40:40;70526.97;;;17.01;100.00
3844;BME280;1937;51.444;6.484;2023-07-31T08:43:08;70595.53;;;17.13;100.00
3844;BME280;1937;51.444;6.484;2023-07-31T08:45:35;70632.63;;;17.20;100.00
3844;BME280;1937;51.444;6.484;2023-07-31T08:48:02;70678.06;;;17.36;100.00
3844;BME280;1937;51.444;6.484;2023-07-31T08:50:30;70643.59;;;17.36;100.00
3844;BME280;1937;51.444;6.484;2023-07-31T08:52:57;70635.78;;;17.36;100.00
3844;BME280;1937;51.444;6.484;2023-07-31T08:55:23;70545.69;;;17.17;100.00
3844;BME280;1937;51.444;6.484;2023-07-31T08:57:51;70544.25;;;17.11;100.00
3844;BME280;1937;51.444;6.484;2023-07-31T09:00:19;70580.75;;;17.18;100.00
3844;BME280;1937;51.444;6.484;2023-07-31T09:02:53;70655.34;;;17.28;100.00
3844;BME280;1937;51.444;6.484;2023-07-31T09:05:21;70717.13;;;17.36;100.00
3844;BME280;1937;51.444;6.484;2023-07-31T09:07:50;70702.47;;;17.33;100.00
3844;BME280;1937;51.444;6.484;2023-07-31T09:10:17;70828.91;;;17.53;100.00
3844;BME280;1937;51.444;6.484;2023-07-31T09:12:45;70828.81;;;17.62;100.00
3844;BME280;1937;51.444;6.484;2023-07-31T09:15:12;70867.72;;;17.64;100.00
3844;BME280;1937;51.444;6.484;2023-07-31T09:17:38;70919.41;;;17.77;100.00
3844;BME280;1937;51.444;6.484;2023-07-31T09:20:16;70874.91;;;17.79;100.00
3844;BME280;1937;51.444;6.484;2023-07-31T09:22:44;70807.81;;;17.64;100.00
3844;BME280;1937;51.444;6.484;2023-07-31T09:25:17;70787.19;;;17.69;100.00
3844;BME280;1937;51.444;6.484;2023-07-31T09:27:48;70852.66;;;17.80;100.00
3844;BME280;1937;51.444;6.484;2023-07-31T09:30:15;70847.09;;;17.84;100.00
3844;BME280;1937;51.444;6.484;2023-07-31T09:32:42;70768.94;;;17.69;100.00
3844;BME280;1937;51.444;6.484;2023-07-31T09:35:19;70843.28;;;17.83;100.00
3844;BME280;1937;51.444;6.484;2023-07-31T09:37:51;70824.25;;;17.84;100.00
3844;BME280;1937;51.444;6.484;2023-07-31T09:40:29;70849.94;;;17.88;100.00
3844;BME280;1937;51.444;6.484;2023-07-31T09:42:56;70848.72;;;17.87;100.00
3844;BME280;1937;51.444;6.484;2023-07-31T09:45:23;70824.50;;;17.89;100.00
3844;BME280;1937;51.444;6.484;2023-07-31T09:47:50;70699.03;;;17.71;100.00
3844;BME280;1937;51.444;6.484;2023-07-31T09:50:17;70760.41;;;17.77;100.00
3844;BME280;1937;51.444;6.484;2023-07-31T09:52:44;70757.44;;;17.81;100.00
3844;BME280;1937;51.444;6.484;2023-07-31T09:55:12;70805.25;;;17.92;100.00
3844;BME280;1937;51.444;6.484;2023-07-31T09:57:42;70812.06;;;18.11;100.00
3844;BME280;1937;51.444;6.484;2023-07-31T10:00:10;70840.63;;;18.20;100.00
3844;BME280;1937;51.444;6.484;2023-07-31T10:02:37;70740.06;;;18.14;100.00
3844;BME280;1937;51.444;6.484;2023-07-31T10:05:05;70676.63;;;18.09;100.00
3844;BME280;1937;51.444;6.484;2023-07-31T10:07:36;70664.25;;;18.16;100.00
3844;BME280;1937;51.444;6.484;2023-07-31T10:10:04;70646.75;;;18.08;100.00
3844;BME280;1937;51.444;6.484;2023-07-31T10:12:33;70659.06;;;18.23;100.00
3844;BME280;1937;51.444;6.484;2023-07-31T10:15:03;70636.66;;;18.32;100.00
3844;BME280;1937;51.444;6.484;2023-07-31T10:17:30;70626.25;;;18.39;100.00
3844;BME280;1937;51.444;6.484;2023-07-31T10:19:58;70732.81;;;18.65;100.00
3844;BME280;1937;51.444;6.484;2023-07-31T10:22:26;70642.88;;;18.64;100.00
3844;BME280;1937;51.444;6.484;2023-07-31T10:24:55;70556.34;;;18.61;100.00
3844;BME280;1937;51.444;6.484;2023-07-31T10:27:24;70500.53;;;18.65;100.00
3844;BME280;1937;51.444;6.484;2023-07-31T10:29:52;70607.03;;;18.84;100.00
3844;BME280;1937;51.444;6.484;2023-07-31T10:32:21;70504.59;;;18.84;100.00
3844;BME280;1937;51.444;6.484;2023-07-31T10:34:49;70461.03;;;18.89;99.57
3844;BME280;1937;51.444;6.484;2023-07-31T10:37:20;70375.47;;;18.83;99.00
3844;BME280;1937;51.444;6.484;2023-07-31T10:39:55;70418.66;;;18.81;100.00
3844;BME280;1937;51.444;6.484;2023-07-31T10:42:28;70381.50;;;18.81;99.57
3844;BME280;1937;51.444;6.484;2023-07-31T10:44:57;70433.53;;;18.96;99.55
3844;BME280;1937;51.444;6.484;2023-07-31T10:47:25;70383.91;;;18.96;98.07
3844;BME280;1937;51.444;6.484;2023-07-31T10:49:52;70338.72;;;18.91;98.39
3844;BME280;1937;51.444;6.484;2023-07-31T10:52:20;70289.09;;;18.91;97.90
3844;BME280;1937;51.444;6.484;2023-07-31T10:54:49;70273.06;;;18.82;98.63
3844;BME280;1937;51.444;6.484;2023-07-31T10:57:20;70294.31;;;18.91;98.61
3844;BME280;1937;51.444;6.484;2023-07-31T10:59:47;70333.69;;;18.96;97.95
3844;BME280;1937;51.444;6.484;2023-07-31T11:02:25;70277.84;;;18.99;97.86
3844;BME280;1937;51.444;6.484;2023-07-31T11:05:08;70283.09;;;18.93;98.20
3844;BME280;1937;51.444;6.484;2023-07-31T11:07:47;70278.69;;;18.85;99.08
3844;BME280;1937;51.444;6.484;2023-07-31T11:10:16;70250.59;;;18.78;98.87
3844;BME280;1937;51.444;6.484;2023-07-31T11:12:44;70256.38;;;18.86;99.31
3844;BME280;1937;51.444;6.484;2023-07-31T11:15:11;70304.19;;;18.77;100.00
3844;BME280;1937;51.444;6.484;2023-07-31T11:17:39;70307.81;;;18.74;100.00
3844;BME280;1937;51.444;6.484;2023-07-31T11:20:07;70326.28;;;18.72;100.00
3844;BME280;1937;51.444;6.484;2023-07-31T11:22:34;70342.34;;;18.74;100.00
3844;BME280;1937;51.444;6.484;2023-07-31T11:25:01;70317.66;;;18.60;100.00
3844;BME280;1937;51.444;6.484;2023-07-31T11:27:28;70373.47;;;18.63;100.00
3844;BME280;1937;51.444;6.484;2023-07-31T11:30:00;70423.88;;;18.81;100.00
3844;BME280;1937;51.444;6.484;2023-07-31T11:32:27;70465.03;;;18.88;100.00
3844;BME280;1937;51.444;6.484;2023-07-31T11:34:55;70486.13;;;18.99;100.00
3844;BME280;1937;51.444;6.484;2023-07-31T11:37:22;70411.22;;;18.97;100.00
3844;BME280;1937;51.444;6.484;2023-07-31T11:39:59;70437.53;;;19.08;100.00
3844;BME280;1937;51.444;6.484;2023-07-31T11:42:25;70343.53;;;19.08;98.59
3844;BME280;1937;51.444;6.484;2023-07-31T11:44:52;70373.06;;;19.20;98.33
3844;BME280;1937;51.444;6.484;2023-07-31T11:47:19;70310.97;;;19.14;97.70
3844;BME280;1937;51.444;6.484;2023-07-31T11:49:46;70335.66;;;19.21;97.42
3844;BME280;1937;51.444;6.484;2023-07-31T11:52:14;70290.47;;;19.10;97.89
3844;BME280;1937;51.444;6.484;2023-07-31T11:54:41;70322.03;;;19.08;98.69
3844;BME280;1937;51.444;6.484;2023-07-31T11:57:08;70319.03;;;18.92;99.94
3844;BME280;1937;51.444;6.484;2023-07-31T11:59:37;70238.91;;;18.91;98.73
3844;BME280;1937;51.444;6.484;2023-07-31T12:02:04;70296.72;;;19.06;99.20
3844;BME280;1937;51.444;6.484;2023-07-31T12:04:31;70370.81;;;19.29;97.91
3844;BME280;1937;51.444;6.484;2023-07-31T12:07:00;70403.97;;;19.57;96.27
3844;BME280;1937;51.444;6.484;2023-07-31T12:09:28;70463.63;;;19.94;94.75
3844;BME280;1937;51.444;6.484;2023-07-31T12:11:55;70376.09;;;19.99;92.78
3844;BME280;1937;51.444;6.484;2023-07-31T12:14:23;70384.72;;;20.11;93.42
3844;BME280;1937;51.444;6.484;2023-07-31T12:16:53;70357.53;;;20.15;92.23
3844;BME280;1937;51.444;6.484;2023-07-31T12:19:21;70319.09;;;20.20;91.77
3844;BME280;1937;51.444;6.484;2023-07-31T12:21:47;70256.19;;;20.02;92.26
3844;BME280;1937;51.444;6.484;2023-07-31T12:24:14;70262.66;;;19.96;92.54
3844;BME280;1937;51.444;6.484;2023-07-31T12:26:45;70255.19;;;19.99;92.77
3844;BME280;1937;51.444;6.484;2023-07-31T12:29:11;70199.09;;;19.91;93.25
3844;BME280;1937;51.444;6.484;2023-07-31T12:31:40;70274.31;;;19.97;92.53
3844;BME280;1937;51.444;6.484;2023-07-31T12:34:15;70279.47;;;20.11;92.70
3844;BME280;1937;51.444;6.484;2023-07-31T12:36:42;70285.56;;;20.02;93.67
3844;BME280;1937;51.444;6.484;2023-07-31T12:39:09;70165.94;;;19.59;95.77
3844;BME280;1937;51.444;6.484;2023-07-31T12:41:35;70262.00;;;19.65;96.22
3844;BME280;1937;51.444;6.484;2023-07-31T12:44:03;70229.06;;;19.55;96.35
3844;BME280;1937;51.444;6.484;2023-07-31T12:46:30;70247.16;;;19.57;96.95
3844;BME280;1937;51.444;6.484;2023-07-31T12:48:57;70228.84;;;19.57;96.03
3844;BME280;1937;51.444;6.484;2023-07-31T12:51:23;70225.84;;;19.61;95.29
3844;BME280;1937;51.444;6.484;2023-07-31T12:53:50;70235.69;;;19.60;95.34
3844;BME280;1937;51.444;6.484;2023-07-31T12:56:16;70259.88;;;19.85;94.32
3844;BME280;1937;51.444;6.484;2023-07-31T12:58:43;70283.34;;;19.98;93.60
3844;BME280;1937;51.444;6.484;2023-07-31T13:01:12;70303.25;;;20.09;92.81
3844;BME280;1937;51.444;6.484;2023-07-31T13:03:38;70236.84;;;20.06;93.44
3844;BME280;1937;51.444;6.484;2023-07-31T13:06:05;70317.72;;;20.08;94.47
3844;BME280;1937;51.444;6.484;2023-07-31T13:08:32;70272.16;;;19.87;95.07
3844;BME280;1937;51.444;6.484;2023-07-31T13:10:58;70286.03;;;19.85;96.00
3844;BME280;1937;51.444;6.484;2023-07-31T13:13:25;70293.91;;;19.79;95.58
3844;BME280;1937;51.444;6.484;2023-07-31T13:15:52;70257.13;;;19.74;95.48
3844;BME280;1937;51.444;6.484;2023-07-31T13:18:19;70211.06;;;19.77;94.64